Flight Information

DEPARTURE
TORRANCE, CA
Elevation:
103
Runways:
11L/29R - 5001x150 - ASPH-CONC-F
11R/29L - 3000x75 - ASPH-CONC-F
H1 - 110x110 - ASPH-G
Active PE Departure:
29L - 29R
Current PE ATIS:
M
Altimeter:
Remarks:
ATIS:
125.6 310-534-2847
Ground:
120.9
Tower:
124.0 (South) 133.075 (North)
DESTINATION
,
Elevation:
TPA:
1000 (est.)


6793.6 NM73° True-14° Var59° HDG

Flight Plan:
(click to file on line)

1. Type
2. Aircraft Identification
3. Aircraft Type / Special Equipment
4. True Airspeed
kts
5. Departure Airport
(ICAO code)
6. Arriving Airport
(ICAO code)
7. Cruising Altitude
ft
8. Alternate Airport
(ICAO code)
9. Route of Flight
10. Remarks


00:00:00 Departure ATIS: Destination ATIS:

Clearance Limit:
Route:
Altitude: Expect in minutes
Frequency:
Transponder: (7500 Hijack / 7600 Lost Comms / 7700 Emergency)


KTOA 251850Z 25026G35KT 10SM SCT060 11/04 A2978
Time: 2021-01-25T18:50:00Z
1611602912
Winds: 250 @ 26 kts
Gusting:35 kts
Visibility: 10.0 sm
Clouds (AGL): SCT 6000
Temperature: 11.0 C
Dew Point: 4.0 C
Pressure: 29.778543 in Hgbr


Notes:

Data extracted from FAA Digital Chart Supplement. Effective: 0901Z Thursday, Dec 31, 2020 to 0901Z Thursday, Jan 28, 2021
Current ATIS data is provided courtisy of PilotEdge.